Time;durP1;ratioP1;P1;durP2;ratioP2;P2;SDS_P1;SDS_P2;PMS_P1;PMS_P2;Temp;Humidity;BMP_temperature;BMP_pressure;BME280_temperature;BME280_humidity;BME280_pressure;Samples;Min_cycle;Max_cycle;Signal;HPM_P1;HPM_P2
2022/08/14 00:00:15;;;;;;;11.85;8.57;;;;;;;19.96;66.32;99174.03;4351800;32;33862;-74
2022/08/14 00:03:01;;;;;;;11.32;7.57;;;;;;;20.18;65.88;99175.78;4358821;32;34977;-74
2022/08/14 00:05:49;;;;;;;11.98;7.60;;;;;;;20.20;66.05;99175.38;4359238;32;35035;-74
2022/08/14 00:08:45;;;;;;;11.75;7.97;;;;;;;21.22;61.91;99176.28;4352557;32;34661;-74
2022/08/14 00:11:31;;;;;;;11.48;8.23;;;;;;;21.02;62.11;99167.47;4357877;32;34085;-75
2022/08/14 00:14:18;;;;;;;12.13;7.55;;;;;;;21.31;61.83;99164.78;4358500;32;35622;-74
2022/08/14 00:17:05;;;;;;;11.05;8.00;;;;;;;21.20;62.62;99178.66;4359389;32;34785;-75
2022/08/14 00:19:51;;;;;;;11.43;7.47;;;;;;;21.01;63.33;99173.47;4355189;32;35499;-75
2022/08/14 00:22:38;;;;;;;11.90;7.90;;;;;;;21.21;62.64;99168.34;4352641;32;35075;-74
2022/08/14 00:25:52;;;;;;;10.95;8.07;;;;;;;21.46;61.43;99173.97;4350068;32;34523;-74
2022/08/14 00:28:52;;;;;;;13.07;7.55;;;;;;;21.67;60.43;99162.87;4359192;32;33816;-74
2022/08/14 00:31:39;;;;;;;14.13;8.77;;;;;;;21.22;62.65;99164.38;4353159;32;34409;-75
2022/08/14 00:34:30;;;;;;;9.98;7.57;;;;;;;21.28;61.86;99162.78;4355622;32;33902;-75
2022/08/14 00:37:23;;;;;;;11.80;8.00;;;;;;;20.70;63.89;99150.66;4358896;32;34155;-74
2022/08/14 00:40:12;;;;;;;12.98;7.85;;;;;;;21.21;62.25;99157.22;4358787;32;34601;-74
2022/08/14 00:43:18;;;;;;;12.32;8.10;;;;;;;21.32;61.71;99158.03;4359002;32;35515;-74
2022/08/14 00:46:08;;;;;;;9.82;7.85;;;;;;;21.17;62.04;99157.19;4358713;32;34231;-75
2022/08/14 00:49:15;;;;;;;11.75;7.78;;;;;;;21.29;61.89;99147.69;4351821;32;33533;-75
2022/08/14 00:52:06;;;;;;;10.95;8.20;;;;;;;21.20;62.20;99152.81;4359390;32;34969;-75
2022/08/14 00:54:53;;;;;;;11.77;7.15;;;;;;;20.68;64.53;99153.03;4368061;32;35464;-74
2022/08/14 00:57:43;;;;;;;10.00;7.73;;;;;;;19.60;69.66;99156.22;4366242;32;33677;-74
2022/08/14 01:00:30;;;;;;;12.27;8.30;;;;;;;19.91;68.78;99150.16;4363270;32;34119;-74
2022/08/14 01:03:28;;;;;;;10.98;8.05;;;;;;;19.28;71.22;99151.16;4359618;32;35628;-74
2022/08/14 01:06:16;;;;;;;11.63;8.02;;;;;;;19.77;69.71;99150.84;4349654;32;34258;-74
2022/08/14 01:09:03;;;;;;;12.73;8.02;;;;;;;19.89;68.45;99157.28;4351107;32;34584;-75
2022/08/14 01:11:52;;;;;;;10.15;7.72;;;;;;;18.99;72.15;99155.63;4358689;32;35618;-74
2022/08/14 01:14:53;;;;;;;11.80;8.02;;;;;;;19.06;73.20;99150.13;4351468;32;34916;-74
2022/08/14 01:23:57;;;;;;;10.52;7.65;;;;;;;20.50;65.77;99163.25;4358637;32;34602;-74
2022/08/14 01:26:45;;;;;;;10.80;7.57;;;;;;;20.61;65.55;99156.59;4352922;32;34983;-74
2022/08/14 01:29:36;;;;;;;11.75;7.93;;;;;;;20.65;65.36;99156.59;4357627;32;35760;-74
2022/08/14 01:32:42;;;;;;;12.80;8.48;;;;;;;20.67;65.33;99152.25;4358796;32;34399;-74
2022/08/14 01:35:30;;;;;;;10.13;7.45;;;;;;;20.70;65.48;99161.00;4357920;32;34718;-74
2022/08/14 01:38:41;;;;;;;12.70;8.13;;;;;;;20.49;66.64;99156.91;4358311;32;34915;-74
2022/08/14 01:41:35;;;;;;;11.48;7.43;;;;;;;20.58;65.42;99160.16;4358270;32;35293;-75
2022/08/14 01:44:25;;;;;;;11.27;8.07;;;;;;;20.50;65.83;99164.06;4355259;32;35053;-74
2022/08/14 01:47:19;;;;;;;12.18;8.23;;;;;;;20.00;67.79;99163.72;4358609;32;34301;-75
2022/08/14 01:50:08;;;;;;;12.37;8.27;;;;;;;20.04;67.51;99164.56;4353859;32;36023;-75
2022/08/14 01:52:55;;;;;;;12.63;8.27;;;;;;;20.28;66.41;99159.53;4354911;32;34606;-74
2022/08/14 01:55:44;;;;;;;12.73;8.50;;;;;;;20.48;65.01;99160.84;4353232;32;34249;-74
2022/08/14 01:58:31;;;;;;;11.25;8.07;;;;;;;20.64;64.64;99161.38;4358432;32;34637;-75
2022/08/14 02:01:19;;;;;;;10.75;7.93;;;;;;;20.60;64.70;99163.31;4358147;32;35675;-74
2022/08/14 02:04:11;;;;;;;10.23;7.75;;;;;;;20.59;64.45;99160.94;4358259;32;34537;-74
2022/08/14 02:07:19;;;;;;;13.93;8.10;;;;;;;20.70;64.21;99152.66;4358150;32;34177;-74
2022/08/14 02:10:27;;;;;;;11.65;7.97;;;;;;;20.44;65.81;99154.50;4358299;32;35464;-74
2022/08/14 02:13:15;;;;;;;10.88;7.43;;;;;;;20.42;65.98;99165.19;4357448;32;36027;-75
2022/08/14 02:16:02;;;;;;;12.98;8.38;;;;;;;20.40;66.69;99165.56;4346910;32;34385;-75
2022/08/14 02:19:13;;;;;;;11.02;7.87;;;;;;;20.38;66.48;99167.19;4357955;32;35072;-75
2022/08/14 02:22:02;;;;;;;12.45;8.43;;;;;;;20.26;67.26;99167.47;4357949;32;34576;-74
2022/08/14 02:24:48;;;;;;;10.40;7.97;;;;;;;20.21;66.83;99163.88;4358117;32;35266;-74
2022/08/14 02:27:36;;;;;;;12.85;8.50;;;;;;;19.70;68.90;99169.44;4357725;32;34961;-75
2022/08/14 02:30:43;;;;;;;14.68;8.65;;;;;;;19.33;70.35;99159.16;4357492;32;35438;-75
2022/08/14 02:33:32;;;;;;;11.68;8.07;;;;;;;17.80;78.32;99163.44;4358135;32;35150;-75
2022/08/14 02:36:25;;;;;;;11.55;8.40;;;;;;;19.21;72.79;99153.84;4357902;32;35013;-74
2022/08/14 02:39:35;;;;;;;13.38;8.32;;;;;;;20.03;67.86;99149.03;4356163;32;34277;-74
2022/08/14 02:42:23;;;;;;;12.10;8.10;;;;;;;20.15;67.31;99161.84;4356656;32;33857;-75
2022/08/14 02:45:24;;;;;;;11.85;8.02;;;;;;;19.87;68.65;99162.44;4357496;32;34746;-74
2022/08/14 02:48:18;;;;;;;11.30;8.20;;;;;;;20.26;67.12;99159.12;4357646;32;35021;-74
2022/08/14 02:51:28;;;;;;;13.15;8.40;;;;;;;19.92;68.71;99162.06;4353982;32;35025;-74
2022/08/14 02:54:15;;;;;;;11.15;8.52;;;;;;;19.75;69.46;99158.78;4346403;32;34234;-75
2022/08/14 02:57:06;;;;;;;13.02;8.35;;;;;;;19.98;68.57;99172.47;4357658;32;33154;-75
2022/08/14 03:00:04;;;;;;;11.98;8.45;;;;;;;20.12;67.44;99171.78;4359342;32;35039;-75
2022/08/14 03:02:54;;;;;;;14.63;9.02;;;;;;;19.92;68.68;99164.84;4351689;32;34601;-74
2022/08/14 03:05:44;;;;;;;11.00;7.90;;;;;;;19.49;69.75;99170.00;4357545;32;34148;-74
2022/08/14 03:08:33;;;;;;;16.60;8.23;;;;;;;20.26;67.04;99168.25;4365047;32;35367;-74
2022/08/14 03:11:20;;;;;;;10.82;8.23;;;;;;;20.45;66.21;99168.00;4357523;32;35578;-74
2022/08/14 03:14:10;;;;;;;12.68;8.85;;;;;;;20.34;66.62;99169.13;4350033;32;34231;-74
2022/08/14 03:17:00;;;;;;;11.98;8.65;;;;;;;20.31;66.70;99167.12;4357387;32;35158;-75
2022/08/14 03:19:46;;;;;;;12.25;9.27;;;;;;;20.21;67.16;99180.56;4357324;32;35594;-75
2022/08/14 03:22:36;;;;;;;14.60;8.65;;;;;;;19.83;68.86;99175.50;4356821;32;35007;-74
2022/08/14 03:25:32;;;;;;;14.90;9.07;;;;;;;20.20;67.36;99170.63;4357111;32;35802;-74
2022/08/14 03:28:25;;;;;;;13.07;8.50;;;;;;;18.95;73.76;99179.75;4355701;32;34914;-75
2022/08/14 03:31:21;;;;;;;12.30;8.63;;;;;;;19.40;71.75;99175.09;4359296;32;34431;-75
2022/08/14 03:34:12;;;;;;;15.35;8.85;;;;;;;17.96;78.98;99178.75;4358803;32;34686;-75
2022/08/14 03:37:20;;;;;;;12.25;8.70;;;;;;;18.05;78.82;99174.94;4359399;32;35263;-74
2022/08/14 03:40:26;;;;;;;12.55;8.45;;;;;;;18.28;79.56;99174.88;4359318;32;34200;-75
2022/08/14 03:43:12;;;;;;;13.80;8.82;;;;;;;19.53;72.13;99174.44;4359429;32;34719;-75
2022/08/14 03:46:01;;;;;;;13.07;8.98;;;;;;;18.75;75.65;99174.34;4359068;32;34966;-75
2022/08/14 03:48:55;;;;;;;11.90;8.65;;;;;;;18.23;79.70;99167.66;4359358;32;34316;-75
2022/08/14 03:51:42;;;;;;;13.07;8.88;;;;;;;19.50;72.95;99172.41;4359538;32;34923;-74
2022/08/14 03:54:29;;;;;;;15.05;8.60;;;;;;;19.70;71.65;99170.25;4358995;32;34643;-75
2022/08/14 03:57:15;;;;;;;12.60;8.55;;;;;;;19.70;71.74;99172.22;4365003;32;34992;-74
2022/08/14 04:00:09;;;;;;;14.82;9.05;;;;;;;19.19;74.32;99172.88;4359142;32;34743;-75
2022/08/14 04:03:13;;;;;;;12.95;9.07;;;;;;;19.86;71.42;99171.94;4357764;32;35224;-75
2022/08/14 04:06:09;;;;;;;12.25;8.57;;;;;;;19.59;72.45;99177.66;4359021;32;35609;-74
2022/08/14 04:08:56;;;;;;;15.18;9.10;;;;;;;19.90;71.20;99170.00;4359001;32;35706;-75
2022/08/14 04:11:44;;;;;;;13.32;8.70;;;;;;;19.88;70.96;99170.37;4359278;32;34694;-74
2022/08/14 04:14:30;;;;;;;14.05;9.50;;;;;;;19.91;70.94;99177.97;4359010;32;33709;-75
2022/08/14 04:17:22;;;;;;;11.38;8.48;;;;;;;19.88;70.95;99183.50;4358665;32;35259;-75
2022/08/14 04:20:09;;;;;;;13.32;9.13;;;;;;;19.02;75.50;99188.16;4362950;32;35046;-74
2022/08/14 04:22:57;;;;;;;12.20;9.20;;;;;;;19.56;73.86;99178.41;4368224;32;34799;-74
2022/08/14 04:25:46;;;;;;;12.18;8.32;;;;;;;19.89;71.71;99180.31;4359005;32;34377;-75
2022/08/14 04:28:35;;;;;;;13.88;10.13;;;;;;;20.02;71.40;99186.37;4359079;32;34671;-75
2022/08/14 04:31:42;;;;;;;15.98;8.93;;;;;;;19.86;72.27;99185.84;4349962;32;34898;-75
2022/08/14 04:34:48;;;;;;;12.18;8.98;;;;;;;20.15;71.00;99186.88;4359125;32;34239;-74
2022/08/14 04:43:47;;;;;;;11.82;7.93;;;;;;;18.30;81.41;99192.75;4359198;32;35020;-75
2022/08/14 04:46:35;;;;;;;12.05;8.32;;;;;;;19.21;77.04;99201.88;4358279;32;34671;-75
2022/08/14 04:49:42;;;;;;;12.95;8.55;;;;;;;19.75;74.33;99192.13;4358931;32;35491;-75
2022/08/14 04:52:42;;;;;;;11.30;8.27;;;;;;;19.79;73.53;99191.38;4358354;32;34198;-74
2022/08/14 04:55:29;;;;;;;12.88;8.68;;;;;;;20.01;73.11;99187.59;4359037;32;35063;-74
2022/08/14 04:58:17;;;;;;;14.68;9.27;;;;;;;18.86;79.30;99191.94;4358148;32;35526;-75
2022/08/14 05:01:19;;;;;;;12.85;8.77;;;;;;;19.63;75.61;99188.78;4354911;32;34149;-75
2022/08/14 05:04:05;;;;;;;15.77;9.95;;;;;;;20.09;73.55;99188.41;4358985;32;34690;-75
2022/08/14 05:06:53;;;;;;;15.90;10.07;;;;;;;19.14;78.30;99195.44;4358955;32;34667;-75
2022/08/14 05:09:40;;;;;;;13.60;9.90;;;;;;;19.97;74.07;99195.88;4350600;32;34320;-75
2022/08/14 05:12:33;;;;;;;14.50;9.82;;;;;;;20.62;71.28;99197.12;4358053;32;34865;-75
2022/08/14 05:15:40;;;;;;;14.15;10.55;;;;;;;20.64;70.88;99191.19;4358127;32;34203;-75
2022/08/14 05:18:30;;;;;;;14.00;9.80;;;;;;;19.39;77.09;99195.72;4358119;32;34951;-75
2022/08/14 05:21:36;;;;;;;13.80;9.68;;;;;;;20.42;72.46;99193.03;4350038;32;34824;-75
2022/08/14 05:24:43;;;;;;;12.68;9.23;;;;;;;20.50;72.25;99186.31;4358979;32;34438;-75
2022/08/14 05:27:29;;;;;;;18.98;9.30;;;;;;;21.29;69.62;99192.25;4352128;32;34556;-75
2022/08/14 05:30:18;;;;;;;12.30;9.40;;;;;;;21.24;69.73;99196.22;4350163;32;34535;-74
2022/08/14 05:33:05;;;;;;;15.75;10.30;;;;;;;21.53;68.71;99191.53;4359152;32;34529;-74
2022/08/14 05:35:59;;;;;;;13.13;9.45;;;;;;;21.32;69.60;99191.47;4356793;32;34154;-75
2022/08/14 05:38:46;;;;;;;14.23;9.25;;;;;;;20.99;70.30;99187.78;4353946;32;34553;-75
2022/08/14 05:41:33;;;;;;;15.55;10.00;;;;;;;21.27;69.74;99186.28;4358462;32;34592;-75
2022/08/14 05:44:39;;;;;;;13.57;9.85;;;;;;;20.88;71.72;99187.72;4358667;32;34703;-75
2022/08/14 05:47:32;;;;;;;13.02;9.77;;;;;;;20.43;72.89;99194.59;4341258;32;34131;-75
2022/08/14 05:50:24;;;;;;;11.95;9.07;;;;;;;20.47;73.74;99203.78;4358376;32;34696;-75
2022/08/14 05:53:14;;;;;;;11.73;8.38;;;;;;;20.14;74.96;99196.41;4358764;32;35006;-75
2022/08/14 05:56:01;;;;;;;11.63;8.68;;;;;;;21.40;69.51;99200.66;4357387;32;34666;-75
2022/08/14 05:58:48;;;;;;;13.05;9.10;;;;;;;21.11;71.27;99198.53;4362300;32;33706;-76
2022/08/14 06:01:34;;;;;;;16.15;9.40;;;;;;;20.95;72.40;99195.31;4358420;32;34585;-75
2022/08/14 06:04:21;;;;;;;13.05;8.70;;;;;;;20.91;70.90;99199.28;4358009;32;35940;-75
2022/08/14 06:07:09;;;;;;;12.55;8.38;;;;;;;21.62;68.82;99204.28;4354201;32;35107;-75
2022/08/14 06:09:56;;;;;;;11.50;8.25;;;;;;;21.24;70.54;99195.41;4358466;32;34411;-75
2022/08/14 06:12:49;;;;;;;12.63;8.38;;;;;;;22.29;65.50;99191.59;4358479;32;34678;-75
2022/08/14 06:15:43;;;;;;;13.75;8.52;;;;;;;21.55;68.21;99191.94;4363056;32;34570;-75
2022/08/14 06:18:32;;;;;;;11.27;8.23;;;;;;;21.44;69.31;99191.13;4357382;32;34421;-75
2022/08/14 06:21:21;;;;;;;11.27;8.52;;;;;;;22.51;64.20;99186.72;4364561;32;34187;-75
2022/08/14 06:24:08;;;;;;;11.27;7.62;;;;;;;22.57;63.43;99190.69;4348114;32;34234;-75
2022/08/14 06:26:56;;;;;;;10.30;7.30;;;;;;;22.53;64.30;99187.94;4359099;32;34719;-75
2022/08/14 06:29:50;;;;;;;10.82;7.90;;;;;;;22.76;64.12;99183.88;4358359;32;35298;-75
2022/08/14 06:32:37;;;;;;;10.73;8.27;;;;;;;22.68;63.97;99191.47;4358365;32;34257;-74
2022/08/14 06:35:27;;;;;;;14.07;7.93;;;;;;;22.10;65.81;99187.19;4372878;32;34680;-75
2022/08/14 06:38:23;;;;;;;13.62;8.10;;;;;;;22.44;65.61;99193.13;4358223;32;35080;-74
2022/08/14 06:41:09;;;;;;;12.32;8.30;;;;;;;22.68;65.03;99185.87;4338580;32;34560;-75
2022/08/14 06:43:55;;;;;;;10.05;6.62;;;;;;;22.35;65.30;99190.75;4358165;32;35179;-75
2022/08/14 06:46:41;;;;;;;9.90;6.97;;;;;;;22.14;66.49;99185.16;4360148;32;35508;-75
2022/08/14 06:49:34;;;;;;;8.77;6.40;;;;;;;22.96;63.66;99178.63;4358316;32;34975;-75
2022/08/14 06:52:30;;;;;;;9.18;6.97;;;;;;;23.91;60.34;99172.88;4358507;32;34173;-75
2022/08/14 06:55:17;;;;;;;8.57;6.10;;;;;;;23.63;59.91;99171.88;4358050;32;34198;-75
2022/08/14 06:58:12;;;;;;;11.77;6.50;;;;;;;22.95;63.02;99163.06;4361677;32;34226;-75
2022/08/14 07:07:35;;;;;;;11.23;7.65;;;;;;;24.17;59.52;99157.47;4361861;32;35097;-75
2022/08/14 07:10:24;;;;;;;8.77;6.75;;;;;;;24.67;58.42;99154.91;4360144;32;34302;-75
2022/08/14 07:13:11;;;;;;;8.90;6.62;;;;;;;25.07;55.69;99165.66;4357938;32;35571;-75
2022/08/14 07:15:58;;;;;;;9.27;6.82;;;;;;;25.40;54.68;99161.22;4360273;32;34803;-75
2022/08/14 07:18:46;;;;;;;10.85;6.68;;;;;;;25.71;53.64;99159.12;4353499;32;34362;-75
2022/08/14 07:21:36;;;;;;;9.57;7.03;;;;;;;25.69;54.39;99164.38;4358557;32;34817;-75
2022/08/14 07:24:22;;;;;;;9.00;6.80;;;;;;;25.90;52.19;99170.87;4352524;32;35577;-74
2022/08/14 07:27:15;;;;;;;9.70;7.18;;;;;;;25.93;53.32;99158.81;4360488;32;33588;-74
2022/08/14 07:30:04;;;;;;;9.75;7.10;;;;;;;25.76;53.50;99163.47;4360309;32;35141;-75
2022/08/14 07:32:54;;;;;;;8.75;6.82;;;;;;;26.45;52.25;99158.28;4359526;32;35568;-75
2022/08/14 07:35:40;;;;;;;11.85;8.23;;;;;;;25.96;52.41;99157.97;4360476;32;34971;-75
2022/08/14 07:38:42;;;;;;;9.70;7.60;;;;;;;26.25;52.24;99159.03;4360020;32;34639;-75
2022/08/14 07:41:37;;;;;;;9.90;7.55;;;;;;;26.63;50.41;99160.75;4360000;32;34034;-75
2022/08/14 07:44:23;;;;;;;11.07;7.80;;;;;;;26.15;51.62;99151.59;4354807;32;34683;-75
2022/08/14 07:47:21;;;;;;;11.15;7.68;;;;;;;26.95;50.74;99156.50;4359046;32;35039;-75
2022/08/14 07:50:13;;;;;;;10.68;7.72;;;;;;;26.89;49.50;99159.03;4359520;32;34551;-75
2022/08/14 07:53:05;;;;;;;10.48;7.70;;;;;;;25.91;50.74;99158.44;4360407;32;35185;-75
2022/08/14 07:55:53;;;;;;;10.43;7.30;;;;;;;25.18;54.07;99154.31;4354434;32;34600;-74
2022/08/14 07:59:00;;;;;;;11.95;7.65;;;;;;;25.93;52.49;99159.62;4363791;32;34968;-74
2022/08/14 08:01:46;;;;;;;10.77;7.95;;;;;;;25.80;52.07;99156.56;4360709;32;34671;-75
2022/08/14 08:04:36;;;;;;;11.23;7.68;;;;;;;25.43;53.57;99151.94;4352443;32;34159;-75
2022/08/14 08:07:29;;;;;;;11.18;7.62;;;;;;;25.45;53.58;99157.94;4365202;32;33500;-74
2022/08/14 08:10:30;;;;;;;9.60;7.85;;;;;;;26.38;52.12;99153.59;4360383;32;34994;-74
2022/08/14 08:13:40;;;;;;;9.30;7.57;;;;;;;26.60;50.64;99156.00;4355898;32;34811;-75
2022/08/14 08:16:37;;;;;;;11.43;7.90;;;;;;;26.85;49.76;99158.31;4360583;32;34530;-74
2022/08/14 08:19:23;;;;;;;11.18;7.97;;;;;;;26.87;49.26;99150.25;4366592;32;34560;-74
2022/08/14 08:22:10;;;;;;;10.20;7.95;;;;;;;26.59;49.45;99148.81;4360273;32;34957;-75
2022/08/14 08:24:56;;;;;;;10.85;7.65;;;;;;;27.48;47.72;99149.72;4360645;32;35486;-74
2022/08/14 08:27:53;;;;;;;12.50;7.82;;;;;;;27.21;48.05;99144.31;4364470;32;34209;-74
2022/08/14 08:30:45;;;;;;;9.15;7.82;;;;;;;27.66;47.05;99149.28;4353446;32;34600;-75
2022/08/14 08:33:35;;;;;;;10.23;7.50;;;;;;;27.09;47.13;99140.09;4353871;32;35573;-76
2022/08/14 08:36:22;;;;;;;8.75;7.07;;;;;;;26.71;47.21;99138.94;4360523;32;34236;-75
2022/08/14 08:39:10;;;;;;;9.90;8.13;;;;;;;26.96;47.32;99142.03;4359238;32;34189;-74
2022/08/14 08:42:08;;;;;;;12.05;7.47;;;;;;;28.35;46.03;99139.94;4355651;32;34684;-75
2022/08/14 08:44:55;;;;;;;11.75;8.00;;;;;;;27.56;45.04;99139.87;4360195;32;36066;-75
2022/08/14 08:47:42;;;;;;;11.02;8.45;;;;;;;27.48;46.21;99137.69;4359936;32;34707;-75
2022/08/14 08:50:33;;;;;;;10.48;8.10;;;;;;;26.89;45.95;99145.75;4352316;32;34075;-75
2022/08/14 08:53:18;;;;;;;11.07;8.45;;;;;;;27.68;44.80;99135.56;4353102;32;34383;-74
2022/08/14 08:56:05;;;;;;;11.60;8.50;;;;;;;28.92;42.13;99138.34;4359360;32;35057;-74
2022/08/14 08:58:52;;;;;;;11.68;8.45;;;;;;;27.93;43.95;99134.19;4358802;32;35579;-74
2022/08/14 09:01:38;;;;;;;11.20;7.82;;;;;;;28.25;44.05;99131.31;4358412;32;34764;-74
2022/08/14 09:04:28;;;;;;;9.93;8.15;;;;;;;29.09;42.28;99120.12;4359528;32;34299;-74
2022/08/14 09:07:15;;;;;;;12.98;9.15;;;;;;;29.55;40.98;99120.66;4353530;32;35001;-74
2022/08/14 09:10:03;;;;;;;12.37;8.23;;;;;;;28.61;43.81;99121.12;4359716;32;35662;-74
2022/08/14 09:12:50;;;;;;;10.70;8.52;;;;;;;29.45;42.18;99123.84;4359616;32;34437;-75
2022/08/14 09:15:38;;;;;;;13.00;8.40;;;;;;;29.70;40.72;99118.19;4360077;32;35625;-75
2022/08/14 09:18:27;;;;;;;;;;;;;;;30.10;40.07;99122.50;4365332;32;35022;-74
2022/08/14 09:21:14;;;;;;;9.10;7.93;;;;;;;30.30;39.45;99120.19;4360072;32;35766;-74
2022/08/14 09:24:01;;;;;;;10.27;7.95;;;;;;;30.41;38.07;99119.81;4360472;32;34124;-74
2022/08/14 09:27:07;;;;;;;11.73;8.38;;;;;;;30.78;36.51;99120.09;4359359;32;34588;-75
2022/08/14 09:30:09;;;;;;;10.65;7.68;;;;;;;30.37;38.24;99108.66;4362666;32;34950;-76
2022/08/14 09:33:52;;;;;;;10.88;8.15;;;;;;;30.05;39.02;99115.41;4359415;32;35547;-75
2022/08/14 09:36:54;;;;;;;10.18;7.72;;;;;;;29.69;38.76;99102.50;4360304;32;35212;-75
2022/08/14 09:40:15;;;;;;;10.43;7.35;;;;;;;30.41;37.49;99102.88;4359558;32;35628;-74
2022/08/14 09:43:18;;;;;;;11.60;7.15;;;;;;;31.32;34.24;99102.63;4364167;32;34957;-74
2022/08/14 09:46:07;;;;;;;9.75;7.32;;;;;;;31.31;32.91;99094.59;4359696;32;34260;-74
2022/08/14 09:49:04;;;;;;;10.00;6.68;;;;;;;31.54;32.91;99087.63;4359895;32;33735;-75
2022/08/14 09:51:51;;;;;;;8.70;6.72;;;;;;;31.48;31.69;99087.47;4352722;32;34537;-74
2022/08/14 09:54:47;;;;;;;10.02;6.28;;;;;;;32.08;30.73;99089.00;4352874;32;36014;-75
2022/08/14 09:57:33;;;;;;;9.02;6.60;;;;;;;32.22;29.24;99084.75;4353384;32;35046;-75
2022/08/14 10:00:36;;;;;;;11.02;6.80;;;;;;;31.56;31.11;99076.59;4357510;32;34168;-74
2022/08/14 10:03:32;;;;;;;8.43;6.30;;;;;;;30.47;32.62;99079.19;4352270;32;34264;-74
2022/08/14 10:06:24;;;;;;;7.53;5.82;;;;;;;31.44;31.26;99074.69;4365423;32;36075;-74
2022/08/14 10:09:13;;;;;;;9.95;6.70;;;;;;;32.01;29.31;99072.31;4355605;32;34720;-74
2022/08/14 10:12:04;;;;;;;8.70;6.70;;;;;;;32.69;30.23;99075.72;4352983;32;34358;-74
2022/08/14 10:14:50;;;;;;;9.25;6.70;;;;;;;32.32;29.89;99079.88;4358765;32;35214;-74
2022/08/14 10:17:38;;;;;;;9.00;6.68;;;;;;;32.95;28.80;99075.34;4359621;32;35977;-74
2022/08/14 10:20:32;;;;;;;9.13;6.78;;;;;;;32.95;28.38;99080.22;4340850;32;35489;-75
2022/08/14 10:23:38;;;;;;;7.43;6.25;;;;;;;32.41;27.90;99072.13;4359542;32;34218;-75
2022/08/14 10:26:26;;;;;;;6.72;5.40;;;;;;;32.03;28.40;99076.25;4354280;32;34615;-74
2022/08/14 10:29:16;;;;;;;7.37;5.82;;;;;;;32.85;26.51;99070.97;4359796;32;35855;-74
2022/08/14 10:32:10;;;;;;;8.77;6.40;;;;;;;32.24;27.75;99080.16;4359718;32;34744;-73
2022/08/14 10:35:14;;;;;;;9.18;6.20;;;;;;;31.51;28.43;99074.41;4359882;32;35122;-74
2022/08/14 10:38:02;;;;;;;8.35;6.72;;;;;;;31.61;28.80;99061.84;4363784;32;35362;-74
2022/08/14 10:40:52;;;;;;;9.68;6.28;;;;;;;32.77;28.16;99064.06;4364499;32;36031;-73
2022/08/14 10:44:04;;;;;;;8.52;7.00;;;;;;;31.97;28.75;99068.84;4364389;32;34786;-73
2022/08/14 10:46:57;;;;;;;8.32;6.40;;;;;;;31.74;28.54;99062.50;4364102;32;36605;-74
2022/08/14 10:50:05;;;;;;;10.07;6.18;;;;;;;33.09;27.75;99068.22;4365834;32;34231;-73
2022/08/14 10:52:58;;;;;;;8.10;6.55;;;;;;;33.02;28.40;99060.06;4363921;32;36059;-74
2022/08/14 10:55:47;;;;;;;8.13;6.18;;;;;;;32.22;27.35;99068.53;4357361;32;34576;-74
2022/08/14 10:58:35;;;;;;;6.62;5.93;;;;;;;32.36;27.55;99063.47;4363771;32;34083;-73
2022/08/14 11:01:29;;;;;;;10.13;6.28;;;;;;;31.49;27.94;99059.94;4364029;32;34683;-73
2022/08/14 11:04:24;;;;;;;7.15;6.07;;;;;;;31.72;27.74;99056.50;4354737;32;34623;-74
2022/08/14 11:07:15;;;;;;;8.63;5.43;;;;;;;32.99;26.25;99046.78;4356125;32;34608;-73
2022/08/14 11:10:12;;;;;;;7.07;5.60;;;;;;;33.19;24.70;99043.41;4363339;32;35257;-73
2022/08/14 11:13:00;;;;;;;8.10;5.70;;;;;;;32.00;26.04;99050.91;4356996;32;34681;-73
2022/08/14 11:15:50;;;;;;;9.20;5.80;;;;;;;32.37;25.83;99048.84;4363842;32;34967;-74
2022/08/14 11:18:38;;;;;;;7.55;6.00;;;;;;;32.64;23.81;99050.84;4363857;32;34725;-73
2022/08/14 11:21:25;;;;;;;9.48;6.65;;;;;;;33.06;24.33;99038.75;4357082;32;34310;-73
2022/08/14 11:24:21;;;;;;;7.30;5.95;;;;;;;32.84;24.60;99041.03;4363687;32;34313;-74
2022/08/14 11:27:29;;;;;;;8.50;7.25;;;;;;;32.88;25.40;99033.13;4372210;32;34858;-73
2022/08/14 11:30:23;;;;;;;8.75;7.80;;;;;;;31.81;27.91;99025.34;4364720;32;34139;-73
2022/08/14 11:33:31;;;;;;;9.52;7.45;;;;;;;32.87;27.46;99020.19;4362617;32;34101;-75
2022/08/14 11:36:22;;;;;;;10.20;8.10;;;;;;;33.83;26.18;99020.34;4366065;32;35586;-73
2022/08/14 11:39:21;;;;;;;7.87;5.87;;;;;;;34.12;26.27;99027.38;4363404;32;34931;-73
2022/08/14 11:42:23;;;;;;;7.28;6.00;;;;;;;34.05;24.14;99022.09;4363213;32;35485;-73
2022/08/14 11:45:33;;;;;;;8.52;5.32;;;;;;;34.56;23.05;99018.16;4358629;32;34053;-74
2022/08/14 11:48:24;;;;;;;6.65;5.37;;;;;;;33.94;22.50;99009.19;4358406;32;35181;-73
2022/08/14 11:51:31;;;;;;;9.18;6.10;;;;;;;35.08;22.34;98995.72;4352605;32;34474;-73
2022/08/14 11:54:37;;;;;;;7.93;6.05;;;;;;;34.97;23.67;98996.28;4357560;32;35516;-73
2022/08/14 11:57:26;;;;;;;7.93;5.65;;;;;;;35.91;22.15;98994.47;4354043;32;34067;-73
2022/08/14 12:00:17;;;;;;;7.60;5.87;;;;;;;35.94;22.53;98982.06;4361145;32;34304;-73
2022/08/14 12:03:05;;;;;;;8.00;5.60;;;;;;;34.95;22.51;98978.13;4350288;32;35865;-73
2022/08/14 12:05:51;;;;;;;9.63;5.85;;;;;;;33.57;23.77;98985.97;4359907;32;35667;-74
2022/08/14 12:08:38;;;;;;;7.45;5.75;;;;;;;32.75;24.92;98975.81;4362745;32;35200;-73
2022/08/14 12:11:25;;;;;;;6.95;5.65;;;;;;;34.01;23.65;98983.25;4356101;32;34671;-73
2022/08/14 12:14:12;;;;;;;7.07;5.80;;;;;;;34.02;24.21;98975.50;4365986;32;34896;-74
2022/08/14 12:17:18;;;;;;;9.75;6.10;;;;;;;34.18;24.24;98977.09;4360912;32;34566;-73
2022/08/14 12:20:10;;;;;;;9.35;5.90;;;;;;;35.24;23.33;98980.94;4360350;32;34332;-73
2022/08/14 12:23:00;;;;;;;9.40;5.37;;;;;;;35.48;22.26;98968.56;4360524;32;34635;-73
2022/08/14 12:26:04;;;;;;;6.50;5.15;;;;;;;36.01;21.56;98971.03;4353819;32;34933;-73
2022/08/14 12:29:13;;;;;;;8.82;5.15;;;;;;;36.03;20.55;98964.78;4359894;32;34620;-73
2022/08/14 12:32:06;;;;;;;6.12;5.40;;;;;;;36.89;19.87;98959.38;4360122;32;34405;-74
2022/08/14 12:34:57;;;;;;;8.60;6.20;;;;;;;37.08;20.18;98957.69;4355485;32;34607;-73
2022/08/14 12:37:48;;;;;;;9.05;6.07;;;;;;;37.54;19.71;98958.72;4360381;32;35739;-73
2022/08/14 12:40:51;;;;;;;8.45;5.95;;;;;;;36.02;20.66;98954.69;4359517;32;34649;-72
2022/08/14 12:43:56;;;;;;;7.22;6.00;;;;;;;36.29;20.66;98961.19;4359705;32;33797;-73
2022/08/14 12:46:44;;;;;;;9.13;5.85;;;;;;;36.11;21.79;98962.31;4355995;32;34425;-73
2022/08/14 12:49:33;;;;;;;7.32;5.47;;;;;;;34.36;22.68;98953.41;4360250;32;35084;-73
2022/08/14 12:52:33;;;;;;;7.12;5.70;;;;;;;34.14;22.28;98950.94;4360132;32;34723;-73
2022/08/14 12:55:41;;;;;;;9.05;6.22;;;;;;;35.21;21.81;98939.22;4357365;32;34064;-72
2022/08/14 12:58:50;;;;;;;7.28;5.72;;;;;;;33.44;23.03;98940.75;4359665;32;35596;-72
2022/08/14 13:01:39;;;;;;;9.70;6.10;;;;;;;33.79;22.69;98940.19;4360470;32;35992;-73
2022/08/14 13:04:47;;;;;;;10.15;6.18;;;;;;;33.91;21.94;98947.66;4360497;32;34574;-73
2022/08/14 13:07:38;;;;;;;7.25;5.93;;;;;;;34.68;21.59;98935.31;4359656;32;34402;-74
2022/08/14 13:10:34;;;;;;;8.52;6.43;;;;;;;34.11;23.11;98934.87;4351767;32;34545;-73
2022/08/14 13:13:41;;;;;;;8.25;5.82;;;;;;;31.73;25.96;98941.97;4354666;32;34921;-73
2022/08/14 13:16:30;;;;;;;8.70;6.12;;;;;;;31.83;25.96;98936.31;4351746;32;35403;-73
2022/08/14 13:19:24;;;;;;;9.32;6.70;;;;;;;33.03;24.84;98931.88;4350286;32;33599;-73
2022/08/14 13:22:14;;;;;;;9.48;6.60;;;;;;;33.08;25.40;98936.91;4352875;32;34571;-73
2022/08/14 13:25:20;;;;;;;9.48;6.50;;;;;;;32.00;26.40;98937.56;4359133;32;35889;-74
2022/08/14 13:28:08;;;;;;;8.27;5.85;;;;;;;32.81;26.04;98934.19;4354326;32;35461;-73
2022/08/14 13:31:00;;;;;;;9.50;6.35;;;;;;;33.19;25.24;98927.84;4363697;32;34122;-73
2022/08/14 13:33:46;;;;;;;6.30;5.47;;;;;;;33.49;25.42;98934.41;4365423;32;34631;-73
2022/08/14 13:36:33;;;;;;;9.43;6.28;;;;;;;32.46;26.40;98931.81;4353381;32;34966;-73
2022/08/14 13:39:45;;;;;;;8.35;6.50;;;;;;;32.22;26.98;98931.72;4359044;32;35435;-73
2022/08/14 13:42:43;;;;;;;8.27;6.47;;;;;;;31.52;27.15;98931.59;4356137;32;35887;-73
2022/08/14 13:45:34;;;;;;;8.18;6.00;;;;;;;31.36;27.39;98925.00;4355304;32;35486;-73
2022/08/14 13:48:40;;;;;;;7.40;5.80;;;;;;;31.61;27.07;98920.28;4359803;32;35020;-73